createdAt,value
2022-10-06T00:00:40.087Z,58.97
2022-10-06T00:01:40.084Z,59.78
2022-10-06T00:02:40.086Z,62.84
2022-10-06T00:03:40.039Z,63.16
2022-10-06T00:04:40.032Z,58.49
2022-10-06T00:05:40.025Z,62.68
2022-10-06T00:06:40.039Z,61.87
2022-10-06T00:07:40.000Z,60.59
2022-10-06T00:08:40.012Z,60.42
2022-10-06T00:09:39.979Z,61.23
2022-10-06T00:10:39.979Z,58.81
2022-10-06T00:11:39.970Z,63.00
2022-10-06T00:12:39.986Z,62.68
2022-10-06T00:13:39.953Z,61.39
2022-10-06T00:14:39.941Z,58.97
2022-10-06T00:15:39.983Z,59.14
2022-10-06T00:16:39.927Z,62.04
2022-10-06T00:17:39.917Z,60.59
2022-10-06T00:18:39.927Z,57.69
2022-10-06T00:19:39.900Z,61.87
2022-10-06T00:20:39.909Z,60.10
2022-10-06T00:21:39.885Z,63.16
2022-10-06T00:22:39.871Z,59.94
2022-10-06T00:23:39.868Z,64.13
2022-10-06T00:24:39.862Z,61.39
2022-10-06T00:25:39.845Z,57.20
2022-10-06T00:26:39.871Z,57.36
2022-10-06T00:27:39.833Z,61.71
2022-10-06T00:28:39.862Z,60.10
2022-10-06T00:29:39.813Z,63.00
2022-10-06T00:30:39.801Z,61.07
2022-10-06T00:31:39.797Z,59.46
2022-10-06T00:32:39.805Z,59.46
2022-10-06T00:33:39.778Z,59.94
2022-10-06T00:34:39.805Z,58.97
2022-10-06T00:35:39.772Z,61.07
2022-10-06T00:36:39.755Z,63.65
2022-10-06T00:37:39.739Z,62.84
2022-10-06T00:38:39.759Z,62.36
2022-10-06T00:39:39.728Z,59.62
2022-10-06T00:40:39.727Z,61.55
2022-10-06T00:41:39.732Z,60.26
2022-10-06T00:42:39.708Z,60.42
2022-10-06T00:43:39.697Z,57.36
2022-10-06T00:44:39.694Z,58.65
2022-10-06T00:45:39.678Z,57.69
2022-10-06T00:46:39.713Z,59.30
2022-10-06T00:47:39.687Z,60.59
2022-10-06T00:48:39.659Z,59.14
2022-10-06T00:49:39.644Z,59.46
2022-10-06T00:50:39.625Z,64.94
2022-10-06T00:51:39.651Z,62.68
2022-10-06T00:52:39.617Z,61.55
2022-10-06T00:53:39.611Z,60.91
2022-10-06T00:54:39.617Z,60.10
2022-10-06T00:55:39.598Z,60.75
2022-10-06T00:56:39.592Z,60.10
2022-10-06T00:57:39.573Z,60.42
2022-10-06T00:58:39.554Z,60.59
2022-10-06T00:59:39.553Z,61.23
2022-10-06T01:00:39.577Z,64.13
2022-10-06T01:01:39.570Z,60.10
2022-10-06T01:02:39.635Z,61.71
2022-10-06T01:03:39.541Z,60.26
2022-10-06T01:04:39.520Z,60.91
2022-10-06T01:05:39.519Z,60.10
2022-10-06T01:06:39.489Z,61.23
2022-10-06T01:07:39.484Z,60.91
2022-10-06T01:08:39.487Z,62.04
2022-10-06T01:09:39.462Z,62.68
2022-10-06T01:10:39.459Z,63.33
2022-10-06T01:11:39.468Z,58.65
2022-10-06T01:12:39.470Z,61.23
2022-10-06T01:13:39.432Z,60.26
2022-10-06T01:14:39.444Z,59.62
2022-10-06T01:15:39.464Z,59.78
2022-10-06T01:16:39.422Z,58.97
2022-10-06T01:17:39.432Z,63.00
2022-10-06T01:18:39.420Z,60.75
2022-10-06T01:19:39.392Z,58.17
2022-10-06T01:20:39.391Z,64.78
2022-10-06T01:21:39.373Z,59.78
2022-10-06T01:22:39.372Z,60.75
2022-10-06T01:23:39.359Z,62.84
2022-10-06T01:24:39.366Z,62.52
2022-10-06T01:25:39.352Z,63.16
2022-10-06T01:26:39.339Z,62.20
2022-10-06T01:27:39.312Z,60.75
2022-10-06T01:28:39.420Z,60.75
2022-10-06T01:29:39.306Z,62.84
2022-10-06T01:30:39.326Z,60.10
2022-10-06T01:31:39.284Z,59.78
2022-10-06T01:32:39.279Z,60.75
2022-10-06T01:33:39.263Z,59.62
2022-10-06T01:34:39.258Z,61.71
2022-10-06T01:35:39.257Z,59.30
2022-10-06T01:36:39.264Z,64.13
2022-10-06T01:37:39.232Z,62.04
2022-10-06T01:38:39.223Z,59.46
2022-10-06T01:39:39.212Z,59.78
2022-10-06T01:40:39.213Z,60.75
2022-10-06T01:41:39.220Z,61.07
2022-10-06T01:42:39.194Z,60.75
2022-10-06T01:43:39.207Z,61.71
2022-10-06T01:44:39.179Z,59.78
2022-10-06T01:45:39.165Z,61.23
2022-10-06T01:46:39.238Z,61.71
2022-10-06T01:47:39.179Z,62.36
2022-10-06T01:48:39.138Z,60.59
2022-10-06T01:49:39.134Z,59.94
2022-10-06T01:50:39.122Z,60.10
2022-10-06T01:51:39.118Z,59.30
2022-10-06T01:53:46.128Z,60.59
2022-10-06T01:54:39.110Z,61.39
2022-10-06T01:55:39.095Z,60.10
2022-10-06T01:56:39.085Z,60.42
2022-10-06T01:57:39.075Z,60.75
2022-10-06T01:58:39.057Z,58.97
2022-10-06T01:59:39.065Z,59.78
2022-10-06T02:00:39.041Z,62.04
2022-10-06T02:01:39.122Z,59.78
2022-10-06T02:02:39.021Z,59.46
2022-10-06T02:03:39.014Z,56.72
2022-10-06T02:04:39.021Z,59.30
2022-10-06T02:05:38.988Z,60.10
2022-10-06T02:06:39.012Z,62.04
2022-10-06T02:07:38.980Z,63.00
2022-10-06T02:08:38.977Z,63.97
2022-10-06T02:09:38.988Z,63.16
2022-10-06T02:10:38.962Z,65.10
2022-10-06T02:11:38.945Z,63.81
2022-10-06T02:12:38.934Z,59.78
2022-10-06T02:13:38.931Z,63.81
2022-10-06T02:14:38.925Z,59.30
2022-10-06T02:15:39.004Z,62.20
2022-10-06T02:16:38.900Z,60.10
2022-10-06T02:17:38.896Z,57.36
2022-10-06T02:18:38.881Z,58.81
2022-10-06T02:19:38.879Z,57.85
2022-10-06T02:20:38.868Z,60.10
2022-10-06T02:21:38.886Z,60.59
2022-10-06T02:22:38.861Z,61.39
2022-10-06T02:23:38.851Z,58.97
2022-10-06T02:24:38.846Z,58.17
2022-10-06T02:25:38.829Z,60.10
2022-10-06T02:26:38.819Z,61.23
2022-10-06T02:27:38.821Z,62.68
2022-10-06T02:28:38.844Z,61.71
2022-10-06T02:29:38.803Z,63.49
2022-10-06T02:30:38.784Z,62.36
2022-10-06T02:31:38.856Z,58.81
2022-10-06T02:32:38.778Z,59.46
2022-10-06T02:33:38.765Z,63.33
2022-10-06T02:34:38.759Z,62.04
2022-10-06T02:35:38.740Z,61.87
2022-10-06T02:36:38.740Z,60.42
2022-10-06T02:37:38.752Z,61.55
2022-10-06T02:38:38.724Z,62.04
2022-10-06T02:39:38.723Z,62.36
2022-10-06T02:40:38.717Z,58.33
2022-10-06T02:41:38.703Z,61.23
2022-10-06T02:42:38.689Z,60.91
2022-10-06T02:43:38.709Z,59.30
2022-10-06T02:44:38.700Z,60.10
2022-10-06T02:45:38.664Z,62.36
2022-10-06T02:46:38.711Z,59.78
2022-10-06T02:47:38.657Z,60.75
2022-10-06T02:48:38.645Z,59.78
2022-10-06T02:49:38.658Z,60.42
2022-10-06T02:50:38.630Z,58.17
2022-10-06T02:51:38.624Z,62.04
2022-10-06T02:52:38.635Z,62.20
2022-10-06T02:53:38.598Z,61.71
2022-10-06T02:54:38.598Z,60.75
2022-10-06T02:55:38.592Z,59.62
2022-10-06T02:56:38.579Z,61.07
2022-10-06T02:57:38.569Z,59.14
2022-10-06T02:58:38.579Z,60.91
2022-10-06T02:59:38.546Z,60.26
2022-10-06T03:00:38.534Z,59.62
2022-10-06T03:01:38.668Z,59.94
2022-10-06T03:02:38.619Z,59.46
2022-10-06T03:03:38.508Z,58.49
2022-10-06T03:04:38.501Z,61.23
2022-10-06T03:05:38.511Z,60.59
2022-10-06T03:06:38.504Z,60.10
2022-10-06T03:07:38.477Z,62.20
2022-10-06T03:08:38.475Z,61.23
2022-10-06T03:09:38.463Z,61.71
2022-10-06T03:10:38.460Z,61.07
2022-10-06T03:11:38.475Z,59.94
2022-10-06T03:12:38.440Z,62.04
2022-10-06T03:13:38.437Z,62.20
2022-10-06T03:14:38.429Z,61.71
2022-10-06T03:15:38.419Z,62.84
2022-10-06T03:16:38.414Z,62.84
2022-10-06T03:17:38.420Z,63.00
2022-10-06T03:18:38.401Z,60.59
2022-10-06T03:19:38.383Z,60.42
2022-10-06T03:20:38.373Z,62.68
2022-10-06T03:21:38.375Z,61.23
2022-10-06T03:22:38.373Z,60.75
2022-10-06T03:23:38.367Z,61.71
2022-10-06T03:24:38.337Z,60.10
2022-10-06T03:25:38.334Z,63.81
2022-10-06T03:26:38.315Z,62.20
2022-10-06T03:27:38.330Z,60.42
2022-10-06T03:28:38.356Z,59.62
2022-10-06T03:29:38.297Z,60.91
2022-10-06T03:30:38.311Z,61.87
2022-10-06T03:31:38.343Z,61.55
2022-10-06T03:32:38.272Z,60.91
2022-10-06T03:33:38.269Z,63.65
2022-10-06T03:34:38.285Z,64.13
2022-10-06T03:35:38.268Z,62.04
2022-10-06T03:36:38.251Z,60.91
2022-10-06T03:37:38.229Z,63.33
2022-10-06T03:38:38.225Z,63.49
2022-10-06T03:39:38.226Z,62.84
2022-10-06T03:40:38.208Z,61.39
2022-10-06T03:41:38.216Z,61.71
2022-10-06T03:42:38.193Z,63.16
2022-10-06T03:43:38.172Z,61.71
2022-10-06T03:44:38.189Z,60.75
2022-10-06T03:45:38.199Z,62.20
2022-10-06T03:46:38.245Z,62.36
2022-10-06T03:47:38.140Z,63.97
2022-10-06T03:48:38.129Z,63.16
2022-10-06T03:49:38.123Z,61.23
2022-10-06T03:50:38.138Z,63.49
2022-10-06T03:51:38.111Z,62.04
2022-10-06T03:52:38.123Z,63.33
2022-10-06T03:53:38.085Z,63.00
2022-10-06T03:54:38.085Z,64.13
2022-10-06T03:55:38.074Z,62.04
2022-10-06T03:56:38.064Z,62.04
2022-10-06T03:57:38.053Z,61.39
2022-10-06T03:58:38.082Z,61.39
2022-10-06T03:59:38.042Z,61.23
2022-10-06T04:00:38.071Z,60.91
2022-10-06T04:01:38.108Z,63.49
2022-10-06T04:02:38.014Z,62.84
2022-10-06T04:03:38.021Z,64.78
2022-10-06T04:04:38.023Z,62.36
2022-10-06T04:05:37.990Z,63.16
2022-10-06T04:06:37.987Z,63.97
2022-10-06T04:07:37.998Z,62.20
2022-10-06T04:08:37.998Z,64.45
2022-10-06T04:09:37.965Z,62.84
2022-10-06T04:10:37.949Z,64.94
2022-10-06T04:11:37.948Z,64.13
2022-10-06T04:12:37.938Z,63.81
2022-10-06T04:13:37.931Z,63.49
2022-10-06T04:14:37.937Z,62.52
2022-10-06T04:15:37.904Z,63.97
2022-10-06T04:16:37.963Z,64.61
2022-10-06T04:17:37.896Z,62.36
2022-10-06T04:18:37.890Z,62.36
2022-10-06T04:19:37.884Z,63.97
2022-10-06T04:20:37.865Z,64.13
2022-10-06T04:21:37.859Z,61.07
2022-10-06T04:22:37.865Z,62.36
2022-10-06T04:23:37.837Z,64.13
2022-10-06T04:24:37.833Z,61.87
2022-10-06T04:25:37.817Z,64.13
2022-10-06T04:26:37.816Z,62.68
2022-10-06T04:27:37.835Z,63.81
2022-10-06T04:28:37.833Z,64.13
2022-10-06T04:29:37.793Z,63.49
2022-10-06T04:30:37.866Z,63.49
2022-10-06T04:31:37.835Z,64.61
2022-10-06T04:32:37.768Z,63.81
2022-10-06T04:33:37.774Z,62.84
2022-10-06T04:34:37.750Z,63.16
2022-10-06T04:35:37.732Z,63.16
2022-10-06T04:36:37.735Z,63.81
2022-10-06T04:37:37.737Z,63.81
2022-10-06T04:38:37.712Z,63.81
2022-10-06T04:39:37.719Z,65.58
2022-10-06T04:40:37.685Z,64.94
2022-10-06T04:41:37.684Z,63.81
2022-10-06T04:42:37.673Z,64.13
2022-10-06T04:43:37.672Z,64.13
2022-10-06T04:44:37.676Z,60.91
2022-10-06T04:45:37.675Z,65.10
2022-10-06T04:46:43.104Z,64.78
2022-10-06T04:47:38.643Z,62.84
2022-10-06T04:48:37.651Z,62.04
2022-10-06T04:49:37.622Z,62.20
2022-10-06T04:50:37.608Z,62.84
2022-10-06T04:51:37.603Z,64.13
2022-10-06T04:52:37.607Z,63.65
2022-10-06T04:53:37.585Z,64.29
2022-10-06T04:54:37.591Z,64.29
2022-10-06T04:55:37.573Z,65.42
2022-10-06T04:56:37.557Z,63.81
2022-10-06T04:57:37.545Z,64.29
2022-10-06T04:58:37.556Z,62.04
2022-10-06T04:59:37.531Z,63.49
2022-10-06T05:00:37.593Z,63.16
2022-10-06T05:01:37.525Z,64.13
2022-10-06T05:02:37.508Z,64.13
2022-10-06T05:03:37.491Z,65.10
2022-10-06T05:04:37.513Z,62.36
2022-10-06T05:05:37.481Z,64.13
2022-10-06T05:06:37.480Z,64.13
2022-10-06T05:07:37.476Z,61.71
2022-10-06T05:08:37.468Z,63.16
2022-10-06T05:09:37.444Z,63.65
2022-10-06T05:10:37.440Z,63.16
2022-10-06T05:11:37.443Z,64.13
2022-10-06T05:12:37.424Z,64.61
2022-10-06T05:13:37.423Z,63.81
2022-10-06T05:14:37.399Z,64.94
2022-10-06T05:15:37.392Z,63.97
2022-10-06T05:16:37.455Z,64.45
2022-10-06T05:17:37.406Z,64.45
2022-10-06T05:18:37.376Z,64.61
2022-10-06T05:19:37.389Z,64.94
2022-10-06T05:20:37.351Z,66.55
2022-10-06T05:21:37.350Z,64.78
2022-10-06T05:22:37.337Z,64.13
2022-10-06T05:23:37.333Z,64.29
2022-10-06T05:24:37.340Z,64.13
2022-10-06T05:25:37.300Z,64.45
2022-10-06T05:26:37.313Z,65.42
2022-10-06T05:27:37.298Z,64.94
2022-10-06T05:28:37.338Z,65.90
2022-10-06T05:29:37.280Z,66.06
2022-10-06T05:30:37.296Z,65.90
2022-10-06T05:31:37.288Z,65.42
2022-10-06T05:32:37.253Z,64.13
2022-10-06T05:33:37.241Z,64.94
2022-10-06T05:34:37.227Z,65.42
2022-10-06T05:35:37.244Z,65.10
2022-10-06T05:36:37.224Z,65.42
2022-10-06T05:37:37.225Z,64.13
2022-10-06T05:38:37.210Z,66.55
2022-10-06T05:39:37.189Z,64.78
2022-10-06T05:40:37.192Z,65.10
2022-10-06T05:41:37.194Z,64.94
2022-10-06T05:42:37.170Z,66.23
2022-10-06T05:43:37.168Z,64.29
2022-10-06T05:44:37.175Z,65.10
2022-10-06T05:45:37.200Z,66.55
2022-10-06T05:46:37.153Z,65.26
2022-10-06T05:47:37.178Z,65.10
2022-10-06T05:48:37.124Z,65.74
2022-10-06T05:49:37.117Z,65.26
2022-10-06T05:50:37.121Z,65.74
2022-10-06T05:51:37.096Z,66.87
2022-10-06T05:52:37.091Z,66.55
2022-10-06T05:53:37.098Z,66.39
2022-10-06T05:54:37.070Z,67.03
2022-10-06T05:55:37.054Z,67.51
2022-10-06T05:56:37.075Z,66.55
2022-10-06T05:57:37.038Z,66.55
2022-10-06T05:58:37.040Z,64.78
2022-10-06T05:59:37.062Z,65.42
2022-10-06T06:00:37.024Z,64.29
2022-10-06T06:01:37.120Z,65.42
2022-10-06T06:02:37.108Z,67.84
2022-10-06T06:03:36.983Z,66.71
2022-10-06T06:04:36.985Z,66.55
2022-10-06T06:05:36.995Z,68.48
2022-10-06T06:06:36.964Z,67.03
2022-10-06T06:07:36.961Z,65.90
2022-10-06T06:08:36.948Z,65.90
2022-10-06T06:09:37.055Z,65.10
2022-10-06T06:10:36.929Z,66.55
2022-10-06T06:11:36.932Z,68.16
2022-10-06T06:12:36.907Z,64.94
2022-10-06T06:13:36.903Z,65.26
2022-10-06T06:14:36.931Z,65.10
2022-10-06T06:15:36.875Z,64.94
2022-10-06T06:16:36.930Z,64.61
2022-10-06T06:17:36.867Z,65.10
2022-10-06T06:18:36.869Z,65.58
2022-10-06T06:19:36.855Z,64.61
2022-10-06T06:20:36.855Z,64.45
2022-10-06T06:21:36.844Z,64.13
2022-10-06T06:22:36.819Z,66.06
2022-10-06T06:23:36.807Z,67.51
2022-10-06T06:24:36.797Z,65.26
2022-10-06T06:25:36.859Z,66.23
2022-10-06T06:26:36.786Z,66.55
2022-10-06T06:27:36.767Z,66.06
2022-10-06T06:28:36.807Z,66.71
2022-10-06T06:29:36.752Z,63.65
2022-10-06T06:30:36.758Z,64.29
2022-10-06T06:31:36.790Z,64.61
2022-10-06T06:32:36.754Z,66.87
2022-10-06T06:33:36.722Z,68.00
2022-10-06T06:34:36.737Z,63.49
2022-10-06T06:35:36.705Z,61.87
2022-10-06T06:36:36.725Z,63.81
2022-10-06T06:37:36.687Z,64.61
2022-10-06T06:38:36.683Z,64.29
2022-10-06T06:39:36.674Z,63.97
2022-10-06T06:40:36.678Z,63.97
2022-10-06T06:41:36.654Z,63.00
2022-10-06T06:42:36.666Z,63.33
2022-10-06T06:43:36.640Z,64.13
2022-10-06T06:44:36.637Z,65.26
2022-10-06T06:45:36.620Z,64.94
2022-10-06T06:46:36.675Z,63.65
2022-10-06T06:47:36.613Z,63.81
2022-10-06T06:48:36.617Z,64.13
2022-10-06T06:49:36.613Z,63.97
2022-10-06T06:50:36.586Z,63.81
2022-10-06T06:51:36.581Z,63.65
2022-10-06T06:52:36.574Z,60.26
2022-10-06T06:53:36.568Z,64.45
2022-10-06T06:54:36.574Z,62.36
2022-10-06T06:55:36.569Z,62.04
2022-10-06T06:56:36.547Z,62.52
2022-10-06T06:57:36.555Z,60.42
2022-10-06T06:58:36.523Z,60.59
2022-10-06T06:59:36.536Z,60.42
2022-10-06T07:00:36.552Z,60.91
2022-10-06T07:01:36.656Z,59.62
2022-10-06T07:02:36.495Z,60.26
2022-10-06T07:03:56.765Z,59.94
2022-10-06T07:04:37.518Z,59.30
2022-10-06T07:05:36.467Z,62.84
2022-10-06T07:06:36.470Z,62.20
2022-10-06T07:07:36.459Z,59.30
2022-10-06T07:08:36.450Z,59.46
2022-10-06T07:09:36.464Z,63.33
2022-10-06T07:10:36.458Z,63.33
2022-10-06T07:11:36.434Z,63.33
2022-10-06T07:12:36.427Z,63.33
2022-10-06T07:13:36.409Z,61.07
2022-10-06T07:14:36.441Z,62.68
2022-10-06T07:15:36.443Z,63.65
2022-10-06T07:16:36.418Z,62.36
2022-10-06T07:17:36.390Z,62.20
2022-10-06T07:18:36.380Z,59.30
2022-10-06T07:19:36.372Z,58.49
2022-10-06T07:20:36.364Z,60.59
2022-10-06T07:21:36.356Z,62.20
2022-10-06T07:22:36.367Z,60.91
2022-10-06T07:23:36.380Z,60.75
2022-10-06T07:24:36.335Z,60.10
2022-10-06T07:25:36.328Z,59.78
2022-10-06T07:26:36.328Z,59.94
2022-10-06T07:27:36.325Z,59.78
2022-10-06T07:28:36.399Z,60.10
2022-10-06T07:29:36.299Z,61.23
2022-10-06T07:30:40.551Z,60.10
2022-10-06T07:31:36.355Z,60.42
2022-10-06T07:32:36.295Z,59.78
2022-10-06T07:33:36.274Z,60.59
2022-10-06T07:34:36.304Z,60.59
2022-10-06T07:35:36.270Z,59.62
2022-10-06T07:36:36.254Z,61.55
2022-10-06T07:37:36.252Z,62.84
2022-10-06T07:38:36.263Z,59.46
2022-10-06T07:39:36.233Z,59.30
2022-10-06T07:40:36.243Z,59.30
2022-10-06T07:41:36.220Z,57.36
2022-10-06T07:42:36.215Z,61.71
2022-10-06T07:43:36.220Z,60.59
2022-10-06T07:44:36.197Z,58.49
2022-10-06T07:45:36.308Z,59.94
2022-10-06T07:46:36.185Z,59.62
2022-10-06T07:47:36.183Z,59.46
2022-10-06T07:48:36.162Z,58.17
2022-10-06T07:49:36.175Z,60.91
2022-10-06T07:50:36.163Z,60.42
2022-10-06T07:51:36.173Z,58.01
2022-10-06T07:52:36.139Z,59.78
2022-10-06T07:53:36.128Z,59.14
2022-10-06T07:54:36.121Z,60.42
2022-10-06T07:55:36.131Z,58.33
2022-10-06T07:56:36.120Z,60.42
2022-10-06T07:57:36.106Z,60.10
2022-10-06T07:58:36.107Z,63.81
2022-10-06T07:59:36.088Z,61.87
2022-10-06T08:00:36.124Z,59.46
2022-10-06T08:01:36.125Z,60.59
2022-10-06T08:02:36.398Z,61.23
2022-10-06T08:03:36.069Z,63.65
2022-10-06T08:04:36.057Z,61.23
2022-10-06T08:05:36.050Z,62.20
2022-10-06T08:06:36.067Z,59.46
2022-10-06T08:07:36.038Z,60.59
2022-10-06T08:08:36.028Z,62.68
2022-10-06T08:09:36.011Z,62.68
2022-10-06T08:10:36.014Z,61.87
2022-10-06T08:11:35.996Z,63.49
2022-10-06T08:12:36.091Z,60.59
2022-10-06T08:13:35.983Z,65.10
2022-10-06T08:14:35.982Z,62.68
2022-10-06T08:15:35.982Z,67.19
2022-10-06T08:16:36.022Z,60.59
2022-10-06T08:17:35.953Z,61.55
2022-10-06T08:18:51.277Z,61.87
2022-10-06T08:19:36.937Z,60.75
2022-10-06T08:20:35.957Z,63.81
2022-10-06T08:21:35.974Z,60.75
2022-10-06T08:22:35.912Z,61.07
2022-10-06T08:23:42.932Z,63.00
2022-10-06T08:25:01.043Z,65.26
2022-10-06T08:25:36.898Z,64.29
2022-10-06T08:26:35.898Z,63.16
2022-10-06T08:27:35.903Z,59.78
2022-10-06T08:28:35.938Z,60.42
2022-10-06T08:29:35.861Z,60.75
2022-10-06T08:30:35.859Z,61.55
2022-10-06T08:31:35.876Z,59.94
2022-10-06T08:32:35.835Z,61.71
2022-10-06T08:33:35.857Z,59.62
2022-10-06T08:34:35.828Z,61.39
2022-10-06T08:35:35.820Z,58.01
2022-10-06T08:36:35.820Z,58.97
2022-10-06T08:37:35.808Z,59.30
2022-10-06T08:38:35.841Z,59.30
2022-10-06T08:39:35.790Z,58.33
2022-10-06T08:40:35.806Z,60.42
2022-10-06T08:41:35.783Z,58.17
2022-10-06T08:42:35.778Z,57.04
2022-10-06T08:43:35.759Z,56.56
2022-10-06T08:44:35.756Z,57.52
2022-10-06T08:45:38.731Z,58.17
2022-10-06T08:46:35.754Z,56.40
2022-10-06T08:47:35.761Z,57.36
2022-10-06T08:48:35.763Z,57.69
2022-10-06T08:49:35.742Z,59.30
2022-10-06T08:50:35.711Z,59.30
2022-10-06T08:51:35.732Z,59.14
2022-10-06T08:52:35.735Z,59.62
2022-10-06T08:53:35.691Z,58.81
2022-10-06T08:54:35.688Z,57.69
2022-10-06T08:55:35.670Z,57.52
2022-10-06T08:56:35.669Z,57.20
2022-10-06T08:57:35.663Z,57.20
2022-10-06T08:58:35.681Z,59.94
2022-10-06T08:59:35.669Z,58.17
2022-10-06T09:00:35.644Z,56.72
2022-10-06T09:01:35.675Z,56.88
2022-10-06T09:02:35.697Z,60.10
2022-10-06T09:03:35.623Z,60.59
2022-10-06T09:04:35.649Z,56.88
2022-10-06T09:05:35.624Z,55.91
2022-10-06T09:06:35.645Z,58.65
2022-10-06T09:07:35.610Z,58.65
2022-10-06T09:08:35.585Z,56.88
2022-10-06T09:09:35.593Z,56.24
2022-10-06T09:10:35.605Z,56.56
2022-10-06T09:11:35.583Z,58.81
2022-10-06T09:12:35.558Z,60.10
2022-10-06T09:13:35.568Z,57.85
2022-10-06T09:14:35.564Z,57.69
2022-10-06T09:15:35.538Z,60.75
2022-10-06T09:16:35.589Z,59.14
2022-10-06T09:17:35.527Z,59.62
2022-10-06T09:19:07.612Z,59.14
2022-10-06T09:19:36.520Z,60.91
2022-10-06T09:20:35.512Z,58.97
2022-10-06T09:21:35.534Z,59.46
2022-10-06T09:22:35.488Z,59.62
2022-10-06T09:23:35.478Z,58.65
2022-10-06T09:24:35.473Z,58.81
2022-10-06T09:25:35.475Z,58.97
2022-10-06T09:26:36.168Z,59.94
2022-10-06T09:27:35.464Z,59.30
2022-10-06T09:28:35.483Z,58.81
2022-10-06T09:29:35.440Z,60.26
2022-10-06T09:30:35.443Z,58.65
2022-10-06T09:31:35.449Z,58.81
2022-10-06T09:32:35.416Z,58.65
2022-10-06T09:33:35.425Z,57.52
2022-10-06T09:34:35.408Z,58.17
2022-10-06T09:35:35.401Z,59.30
2022-10-06T09:36:35.390Z,59.14
2022-10-06T09:37:35.377Z,60.75
2022-10-06T09:38:35.392Z,58.65
2022-10-06T09:39:35.375Z,58.65
2022-10-06T09:40:35.391Z,58.81
2022-10-06T09:41:35.352Z,60.10
2022-10-06T09:42:35.345Z,58.97
2022-10-06T09:43:35.326Z,60.59
2022-10-06T09:44:35.382Z,59.14
2022-10-06T09:45:35.312Z,62.52
2022-10-06T09:46:35.318Z,60.75
2022-10-06T09:47:35.291Z,59.62
2022-10-06T09:48:35.289Z,60.75
2022-10-06T09:49:35.286Z,61.07
2022-10-06T09:50:35.303Z,60.26
2022-10-06T09:51:35.273Z,61.39
2022-10-06T09:52:35.259Z,60.59
2022-10-06T09:53:37.646Z,61.07
2022-10-06T09:54:35.245Z,63.33
2022-10-06T09:55:35.249Z,63.65
2022-10-06T09:56:35.232Z,61.23
2022-10-06T09:57:35.213Z,60.75
2022-10-06T09:58:35.202Z,59.46
2022-10-06T09:59:39.985Z,59.78
2022-10-06T10:00:35.310Z,59.46
2022-10-06T10:01:35.218Z,59.46
2022-10-06T10:02:35.245Z,60.10
2022-10-06T10:03:35.169Z,60.26
2022-10-06T10:04:35.168Z,58.65
2022-10-06T10:05:35.151Z,57.36
2022-10-06T10:06:35.157Z,58.65
2022-10-06T10:07:35.161Z,60.59
2022-10-06T10:09:35.139Z,59.78
2022-10-06T10:10:35.130Z,59.94
2022-10-06T10:11:35.129Z,58.49
2022-10-06T10:12:35.105Z,60.59
2022-10-06T10:13:35.101Z,59.62
2022-10-06T10:14:35.118Z,59.94
2022-10-06T10:15:35.088Z,58.49
2022-10-06T10:16:35.185Z,58.33
2022-10-06T10:17:35.099Z,58.17
2022-10-06T10:18:35.057Z,57.85
2022-10-06T10:19:35.049Z,60.59
2022-10-06T10:20:35.052Z,58.97
2022-10-06T10:21:35.046Z,59.30
2022-10-06T10:22:35.060Z,58.17
2022-10-06T10:23:35.045Z,59.30
2022-10-06T10:24:35.022Z,60.10
2022-10-06T10:25:35.001Z,60.10
2022-10-06T10:26:35.010Z,61.23
2022-10-06T10:27:35.001Z,61.23
2022-10-06T10:28:35.096Z,59.62
2022-10-06T10:29:34.977Z,59.94
2022-10-06T10:30:34.972Z,58.65
2022-10-06T10:31:34.985Z,59.46
2022-10-06T10:32:34.954Z,60.10
2022-10-06T10:33:34.977Z,62.20
2022-10-06T10:34:34.945Z,60.42
2022-10-06T10:35:34.931Z,59.62
2022-10-06T10:36:34.937Z,60.26
2022-10-06T10:37:34.918Z,58.81
2022-10-06T10:38:34.923Z,59.78
2022-10-06T10:39:34.926Z,58.81
2022-10-06T10:40:34.902Z,59.14
2022-10-06T10:41:34.888Z,60.75
2022-10-06T10:42:34.888Z,58.33
2022-10-06T10:43:34.878Z,60.59
2022-10-06T10:44:34.897Z,60.26
2022-10-06T10:45:34.879Z,59.46
2022-10-06T10:46:34.943Z,59.46
2022-10-06T10:47:34.878Z,59.62
2022-10-06T10:48:34.848Z,59.78
2022-10-06T10:49:34.832Z,59.46
2022-10-06T10:50:34.874Z,58.81
2022-10-06T10:51:34.817Z,58.97
2022-10-06T10:52:34.814Z,59.78
2022-10-06T10:53:36.579Z,59.30
2022-10-06T10:54:34.824Z,59.62
2022-10-06T10:55:34.796Z,60.75
2022-10-06T10:56:34.817Z,61.07
2022-10-06T10:57:34.777Z,58.33
2022-10-06T10:58:34.793Z,59.14
2022-10-06T10:59:34.762Z,59.94
2022-10-06T11:00:34.816Z,60.59
2022-10-06T11:01:34.819Z,59.94
2022-10-06T11:02:34.768Z,58.81
2022-10-06T11:03:34.775Z,59.30
2022-10-06T11:04:34.735Z,60.42
2022-10-06T11:05:34.720Z,58.81
2022-10-06T11:06:34.723Z,59.30
2022-10-06T11:07:34.729Z,59.62
2022-10-06T11:08:34.700Z,60.10
2022-10-06T11:09:34.700Z,59.94
2022-10-06T11:10:34.688Z,59.14
2022-10-06T11:11:34.688Z,60.10
2022-10-06T11:12:34.700Z,61.55
2022-10-06T11:13:34.678Z,61.23
2022-10-06T11:14:34.704Z,60.42
2022-10-06T11:15:34.652Z,60.91
2022-10-06T11:16:34.704Z,58.97
2022-10-06T11:17:34.634Z,61.23
2022-10-06T11:18:34.643Z,59.46
2022-10-06T11:19:34.630Z,64.13
2022-10-06T11:20:34.611Z,63.00
2022-10-06T11:21:34.630Z,62.68
2022-10-06T11:22:34.602Z,60.91
2022-10-06T11:23:34.595Z,60.10
2022-10-06T11:24:34.591Z,61.07
2022-10-06T11:25:35.243Z,60.59
2022-10-06T11:26:34.572Z,60.26
2022-10-06T11:27:34.592Z,61.07
2022-10-06T11:28:34.623Z,61.71
2022-10-06T11:29:34.552Z,58.65
2022-10-06T11:30:34.549Z,60.91
2022-10-06T11:31:34.602Z,60.26
2022-10-06T11:32:34.522Z,61.71
2022-10-06T11:33:34.525Z,59.62
2022-10-06T11:34:34.505Z,63.81
2022-10-06T11:35:34.512Z,62.36
2022-10-06T11:36:34.502Z,61.23
2022-10-06T11:37:34.490Z,62.20
2022-10-06T11:38:34.489Z,62.36
2022-10-06T11:39:34.490Z,64.13
2022-10-06T11:40:34.467Z,63.81
2022-10-06T11:41:34.463Z,62.52
2022-10-06T11:42:34.457Z,62.52
2022-10-06T11:43:34.452Z,60.10
2022-10-06T11:44:34.456Z,60.10
2022-10-06T11:45:34.528Z,61.39
2022-10-06T11:46:35.746Z,60.59
2022-10-06T11:47:35.596Z,59.46
2022-10-06T11:48:34.411Z,60.42
2022-10-06T11:49:34.405Z,60.26
2022-10-06T11:50:34.421Z,60.26
2022-10-06T11:51:34.377Z,59.30
2022-10-06T11:52:34.401Z,61.07
2022-10-06T11:53:34.368Z,59.14
2022-10-06T11:54:34.364Z,59.14
2022-10-06T11:55:34.352Z,58.81
2022-10-06T11:56:34.352Z,58.65
2022-10-06T11:57:34.365Z,59.30
2022-10-06T11:58:42.595Z,60.26
2022-10-06T11:59:35.336Z,59.78
2022-10-06T12:00:34.328Z,58.65
2022-10-06T12:01:34.328Z,59.30
2022-10-06T12:02:34.419Z,58.65
2022-10-06T12:03:34.300Z,59.14
2022-10-06T12:04:34.307Z,60.59
2022-10-06T12:05:56.252Z,60.91
2022-10-06T12:06:35.284Z,58.97
2022-10-06T12:07:34.264Z,61.23
2022-10-06T12:08:34.272Z,60.75
2022-10-06T12:09:34.272Z,59.78
2022-10-06T12:10:34.279Z,57.85
2022-10-06T12:11:34.237Z,59.30
2022-10-06T12:12:34.234Z,59.46
2022-10-06T12:17:35.193Z,61.23
2022-10-06T12:18:34.189Z,59.14
2022-10-06T12:19:34.188Z,58.81
2022-10-06T12:20:34.189Z,58.49
2022-10-06T12:21:34.166Z,60.26
2022-10-06T12:22:34.154Z,61.55
2022-10-06T12:23:34.158Z,61.39
2022-10-06T12:24:34.160Z,60.75
2022-10-06T12:25:34.140Z,59.78
2022-10-06T12:26:34.172Z,59.78
2022-10-06T12:27:34.128Z,60.26
2022-10-06T12:28:34.182Z,58.33
2022-10-06T12:29:34.121Z,61.55
2022-10-06T12:30:34.165Z,60.42
2022-10-06T12:31:34.095Z,60.91
2022-10-06T12:32:34.126Z,58.97
2022-10-06T12:33:34.075Z,66.06
2022-10-06T12:34:34.077Z,62.04
2022-10-06T12:35:34.095Z,61.55
2022-10-06T12:36:34.058Z,60.42
2022-10-06T12:37:34.077Z,61.23
2022-10-06T12:38:34.052Z,65.90
2022-10-06T12:39:34.024Z,62.36
2022-10-06T12:40:34.050Z,64.61
2022-10-06T12:41:34.038Z,62.68
2022-10-06T12:42:34.013Z,64.13
2022-10-06T12:43:34.026Z,65.42
2022-10-06T12:44:33.994Z,62.52
2022-10-06T12:45:33.985Z,63.16
2022-10-06T12:46:34.062Z,62.52
2022-10-06T12:47:33.977Z,62.68
2022-10-06T12:48:33.987Z,62.04
2022-10-06T12:49:33.960Z,65.58
2022-10-06T12:50:33.948Z,63.81
2022-10-06T12:52:33.938Z,60.75
2022-10-06T12:53:33.952Z,62.04
2022-10-06T12:54:33.928Z,61.55
2022-10-06T12:55:33.910Z,64.13
2022-10-06T12:56:33.915Z,65.26
2022-10-06T12:57:33.898Z,61.87
2022-10-06T12:58:33.901Z,63.97
2022-10-06T12:59:33.927Z,60.42